Time;durP1;ratioP1;P1;durP2;ratioP2;P2;SDS_P1;SDS_P2;PMS_P1;PMS_P2;Temp;Humidity;BMP_temperature;BMP_pressure;BME280_temperature;BME280_humidity;BME280_pressure;Samples;Min_cycle;Max_cycle;Signal;HPM_P1;HPM_P2
2022/03/11 00:00:12;;;;;;;11.30;10.10;;;1.80;1.00;;;;;;6300861;28;20561;-55
2022/03/11 00:03:19;;;;;;;11.10;10.00;;;1.80;1.00;;;;;;6294878;28;20277;-57
2022/03/11 00:06:22;;;;;;;11.63;10.23;;;1.60;1.00;;;;;;6312237;28;20321;-55
2022/03/11 00:09:26;;;;;;;11.10;10.00;;;1.60;1.00;;;;;;6297222;28;20233;-55
2022/03/11 00:12:29;;;;;;;13.87;10.13;;;1.70;1.00;;;;;;6294036;28;20315;-55
2022/03/11 00:15:31;;;;;;;16.00;10.63;;;1.50;1.00;;;;;;6308992;28;20627;-57
2022/03/11 00:18:34;;;;;;;13.97;10.70;;;1.60;1.00;;;;;;6300130;28;20244;-57
2022/03/11 00:21:37;;;;;;;15.17;10.60;;;1.40;1.00;;;;;;6284886;28;20257;-56
2022/03/11 00:24:41;;;;;;;13.17;10.40;;;1.50;1.00;;;;;;6283506;28;20566;-57
2022/03/11 00:27:44;;;;;;;12.70;10.07;;;1.60;1.00;;;;;;6285275;28;20767;-58
2022/03/11 00:30:47;;;;;;;11.93;10.70;;;1.60;1.00;;;;;;6285672;28;20770;-56
2022/03/11 00:33:50;;;;;;;15.43;10.97;;;1.60;1.00;;;;;;6297941;28;20241;-55
2022/03/11 00:36:53;;;;;;;11.73;10.53;;;1.50;1.00;;;;;;6296319;28;20236;-55
2022/03/11 00:39:57;;;;;;;12.83;10.23;;;1.60;1.00;;;;;;6295291;28;20298;-55
2022/03/11 00:43:00;;;;;;;11.77;10.50;;;1.60;1.00;;;;;;6306079;28;20232;-57
2022/03/11 00:46:02;;;;;;;16.63;10.83;;;1.50;1.00;;;;;;6299411;28;20236;-55
2022/03/11 00:49:05;;;;;;;14.83;11.37;;;1.50;1.00;;;;;;6308951;28;20276;-54
2022/03/11 00:52:08;;;;;;;13.20;10.20;;;1.50;1.00;;;;;;6293446;28;20273;-55
2022/03/11 00:55:12;;;;;;;13.60;10.10;;;1.30;1.00;;;;;;6296569;28;20319;-56
2022/03/11 00:58:15;;;;;;;12.60;10.13;;;1.30;1.00;;;;;;6310008;28;20445;-56
2022/03/11 01:01:18;;;;;;;13.93;10.40;;;1.30;1.00;;;;;;6310081;28;20319;-57
2022/03/11 01:04:21;;;;;;;13.37;10.90;;;1.30;1.00;;;;;;6300577;28;20294;-56
2022/03/11 01:07:24;;;;;;;13.37;10.20;;;1.40;1.00;;;;;;6307190;28;20290;-55
2022/03/11 01:10:29;;;;;;;13.27;10.73;;;1.20;1.00;;;;;;6301183;28;20239;-55
2022/03/11 01:13:31;;;;;;;15.67;11.63;;;1.00;1.00;;;;;;6293508;28;20267;-56
2022/03/11 01:16:34;;;;;;;14.63;10.27;;;1.20;1.00;;;;;;6283896;28;20245;-57
2022/03/11 01:19:37;;;;;;;13.20;10.33;;;1.10;1.00;;;;;;6283409;28;20630;-55
2022/03/11 01:22:40;;;;;;;14.57;11.20;;;1.30;1.00;;;;;;6283969;28;20302;-55
2022/03/11 01:25:44;;;;;;;11.60;10.03;;;1.10;1.00;;;;;;6298993;28;20332;-55
2022/03/11 01:28:47;;;;;;;15.73;11.30;;;1.00;1.00;;;;;;6301408;28;20625;-54
2022/03/11 01:31:50;;;;;;;12.70;10.20;;;1.30;1.00;;;;;;6283342;28;20311;-55
2022/03/11 01:34:53;;;;;;;15.77;11.47;;;1.10;1.00;;;;;;6306371;28;20692;-56
2022/03/11 01:37:56;;;;;;;14.67;11.40;;;1.00;1.00;;;;;;6298885;28;20499;-58
2022/03/11 01:41:01;;;;;;;14.67;11.00;;;1.00;1.00;;;;;;6304601;28;20282;-58
2022/03/11 01:44:06;;;;;;;11.50;10.40;;;1.10;1.00;;;;;;6305088;28;20258;-54
2022/03/11 01:47:09;;;;;;;14.13;11.00;;;1.00;1.00;;;;;;6305661;28;20340;-56
2022/03/11 01:50:12;;;;;;;16.83;10.73;;;1.10;1.00;;;;;;6282684;28;20244;-57
2022/03/11 01:53:15;;;;;;;11.83;10.60;;;0.60;1.00;;;;;;6282580;28;20703;-56
2022/03/11 01:56:19;;;;;;;16.40;10.80;;;0.70;1.00;;;;;;6291963;28;20320;-56
2022/03/11 01:59:22;;;;;;;13.27;10.83;;;1.00;1.00;;;;;;6291115;28;20417;-54
2022/03/11 02:02:24;;;;;;;16.93;11.30;;;0.70;1.00;;;;;;6298673;28;20256;-55
2022/03/11 02:05:28;;;;;;;14.97;11.30;;;0.80;1.00;;;;;;6307659;28;20333;-55
2022/03/11 02:08:31;;;;;;;17.17;11.00;;;0.60;1.00;;;;;;6307032;28;20232;-54
2022/03/11 02:11:36;;;;;;;16.77;11.33;;;0.60;1.00;;;;;;6309042;28;20228;-55
2022/03/11 02:14:39;;;;;;;13.57;11.10;;;0.50;1.00;;;;;;6304434;28;20510;-55
2022/03/11 02:17:42;;;;;;;13.43;11.27;;;0.50;1.00;;;;;;6282246;28;20324;-56
2022/03/11 02:20:46;;;;;;;14.33;11.17;;;0.50;1.00;;;;;;6282904;28;20271;-57
2022/03/11 02:23:52;;;;;;;16.87;12.20;;;0.50;1.00;;;;;;6282525;28;20241;-55
2022/03/11 02:26:55;;;;;;;13.03;10.53;;;0.70;1.00;;;;;;6309547;28;20228;-58
2022/03/11 02:29:58;;;;;;;13.87;11.27;;;0.50;1.00;;;;;;6307573;28;20331;-56
2022/03/11 02:33:00;;;;;;;15.60;11.97;;;0.40;1.00;;;;;;6305295;28;20289;-56
2022/03/11 02:36:04;;;;;;;14.63;11.97;;;0.40;1.00;;;;;;6307566;28;20236;-57
2022/03/11 02:39:08;;;;;;;15.97;11.87;;;0.60;1.00;;;;;;6307392;28;20443;-57
2022/03/11 02:42:11;;;;;;;15.07;11.67;;;0.50;1.00;;;;;;6306535;28;20764;-55
2022/03/11 02:45:14;;;;;;;16.67;11.67;;;0.50;1.00;;;;;;6282413;28;20287;-55
2022/03/11 02:48:17;;;;;;;16.23;12.17;;;0.40;1.00;;;;;;6282756;28;20329;-55
2022/03/11 02:51:20;;;;;;;16.43;12.33;;;0.30;1.00;;;;;;6282486;28;20382;-55
2022/03/11 02:54:24;;;;;;;16.63;11.60;;;0.30;1.00;;;;;;6281937;28;20268;-55
2022/03/11 02:57:27;;;;;;;17.23;11.77;;;0.50;1.00;;;;;;6282901;28;20312;-55
2022/03/11 03:00:30;;;;;;;13.77;11.73;;;0.30;1.00;;;;;;6285305;28;20639;-57
2022/03/11 03:03:33;;;;;;;14.80;11.37;;;0.20;1.00;;;;;;6299116;28;20321;-55
2022/03/11 03:06:36;;;;;;;13.17;11.60;;;0.30;1.00;;;;;;6312607;28;20229;-55
2022/03/11 03:09:41;;;;;;;15.97;11.97;;;0.40;1.00;;;;;;6311503;28;20371;-57
2022/03/11 03:12:44;;;;;;;12.80;11.40;;;0.30;1.00;;;;;;6306611;28;20423;-60
2022/03/11 03:15:47;;;;;;;16.00;12.37;;;0.40;1.00;;;;;;6311153;28;20518;-56
2022/03/11 03:18:50;;;;;;;17.47;12.47;;;0.30;1.00;;;;;;6304562;28;20601;-56
2022/03/11 03:21:53;;;;;;;15.57;11.93;;;0.20;1.00;;;;;;6310996;28;20313;-56
2022/03/11 03:24:57;;;;;;;18.87;12.43;;;0.50;1.00;;;;;;6311296;28;20504;-56
2022/03/11 03:28:00;;;;;;;13.93;11.67;;;0.40;1.00;;;;;;6298427;28;20302;-56
2022/03/11 03:31:03;;;;;;;15.80;11.80;;;0.30;1.00;;;;;;6287552;28;20394;-58
2022/03/11 03:34:05;;;;;;;13.53;11.40;;;0.30;1.00;;;;;;6303711;28;20239;-55
2022/03/11 03:37:11;;;;;;;15.37;11.83;;;0.30;1.00;;;;;;6308271;28;20637;-55
2022/03/11 03:40:15;;;;;;;13.53;11.53;;;0.20;1.00;;;;;;6311408;28;20347;-55
2022/03/11 03:43:18;;;;;;;15.03;11.43;;;0.20;1.00;;;;;;6302489;28;20374;-56
2022/03/11 03:46:21;;;;;;;14.07;11.63;;;-0.10;1.00;;;;;;6301988;28;20284;-55
2022/03/11 03:49:25;;;;;;;17.10;11.50;;;-0.10;1.00;;;;;;6308773;28;20232;-56
2022/03/11 03:52:28;;;;;;;14.30;11.43;;;0.20;1.00;;;;;;6310230;28;20369;-56
2022/03/11 03:55:32;;;;;;;13.80;11.40;;;0.10;1.00;;;;;;6310334;28;20813;-56
2022/03/11 03:58:35;;;;;;;17.03;11.80;;;0.10;1.00;;;;;;6310206;28;20239;-55
2022/03/11 04:01:40;;;;;;;19.30;11.53;;;0.00;1.00;;;;;;6297728;28;20851;-55
2022/03/11 04:04:43;;;;;;;16.77;12.90;;;-0.30;1.00;;;;;;6299584;28;20264;-57
2022/03/11 04:07:46;;;;;;;17.20;12.10;;;-0.40;1.00;;;;;;6304912;28;20286;-56
2022/03/11 04:10:50;;;;;;;14.47;11.37;;;-0.10;1.00;;;;;;6306365;28;20237;-56
2022/03/11 04:13:53;;;;;;;16.17;11.90;;;-0.30;1.00;;;;;;6309408;28;20381;-57
2022/03/11 04:16:58;;;;;;;15.63;11.90;;;-0.30;1.00;;;;;;6310020;28;20232;-55
2022/03/11 04:20:02;;;;;;;12.70;10.83;;;-0.30;1.00;;;;;;6309222;28;20667;-54
2022/03/11 04:23:04;;;;;;;14.57;11.50;;;-0.20;1.00;;;;;;6285973;28;20241;-56
2022/03/11 04:26:09;;;;;;;15.13;11.47;;;-0.30;1.00;;;;;;6284581;28;20324;-55
2022/03/11 04:29:12;;;;;;;17.00;12.27;;;-0.30;1.00;;;;;;6286022;28;20253;-56
2022/03/11 04:32:15;;;;;;;15.17;11.13;;;-0.50;1.00;;;;;;6302067;28;20240;-55
2022/03/11 04:35:19;;;;;;;20.57;11.87;;;-0.30;1.00;;;;;;6311334;28;20404;-57
2022/03/11 04:38:22;;;;;;;14.30;11.30;;;-0.40;1.00;;;;;;6301551;28;20311;-55
2022/03/11 04:41:26;;;;;;;15.37;11.10;;;-0.40;1.00;;;;;;6304533;28;20878;-57
2022/03/11 04:44:29;;;;;;;16.67;12.10;;;-0.50;1.00;;;;;;6303153;28;20762;-57
2022/03/11 04:47:31;;;;;;;14.30;11.97;;;-0.50;1.00;;;;;;6303567;28;20237;-55
2022/03/11 04:50:34;;;;;;;16.53;11.70;;;-0.50;1.00;;;;;;6305454;28;20228;-56
2022/03/11 04:53:37;;;;;;;14.57;12.23;;;-0.50;1.00;;;;;;6306622;28;20229;-56
2022/03/11 04:56:41;;;;;;;17.13;12.13;;;-0.80;1.00;;;;;;6304834;28;20311;-55
2022/03/11 04:59:44;;;;;;;16.17;11.80;;;-0.50;1.00;;;;;;6307328;28;20236;-54
2022/03/11 05:02:47;;;;;;;15.63;11.80;;;-0.50;1.00;;;;;;6304095;28;20712;-57
2022/03/11 05:05:50;;;;;;;14.80;11.60;;;-0.50;1.00;;;;;;6305957;28;20248;-55
2022/03/11 05:08:53;;;;;;;17.50;11.63;;;-0.70;1.00;;;;;;6298579;28;20327;-56
2022/03/11 05:11:57;;;;;;;18.87;12.23;;;-0.70;1.00;;;;;;6307915;28;20335;-56
2022/03/11 05:15:00;;;;;;;20.77;12.37;;;-0.60;1.00;;;;;;6307477;28;20676;-56
2022/03/11 05:18:02;;;;;;;14.17;11.40;;;-0.70;1.00;;;;;;6301467;28;20311;-56
2022/03/11 05:21:05;;;;;;;18.23;12.40;;;-0.70;1.00;;;;;;6305275;28;20543;-56
2022/03/11 05:24:08;;;;;;;16.47;11.93;;;-0.60;1.00;;;;;;6307942;28;20367;-57
2022/03/11 05:27:12;;;;;;;17.80;12.10;;;-0.50;1.00;;;;;;6300683;28;20240;-57
2022/03/11 05:30:15;;;;;;;18.37;11.80;;;-0.90;1.00;;;;;;6307717;28;20264;-57
2022/03/11 05:33:17;;;;;;;21.40;12.93;;;-0.70;1.00;;;;;;6307477;28;20620;-54
2022/03/11 05:36:21;;;;;;;16.07;11.40;;;-0.70;1.00;;;;;;6302486;28;20257;-55
2022/03/11 05:39:23;;;;;;;19.67;12.53;;;-0.90;1.00;;;;;;6305964;28;20311;-57
2022/03/11 05:42:27;;;;;;;15.33;11.77;;;-0.60;1.00;;;;;;6308005;28;20323;-55
2022/03/11 05:45:31;;;;;;;16.87;12.50;;;-0.60;1.00;;;;;;6305550;28;20294;-56
2022/03/11 05:48:33;;;;;;;15.00;12.37;;;-0.70;1.00;;;;;;6298212;28;20233;-57
2022/03/11 05:51:41;;;;;;;12.50;11.03;;;-0.60;1.00;;;;;;6308081;28;20236;-56
2022/03/11 05:54:44;;;;;;;15.17;11.67;;;-0.70;1.00;;;;;;6303184;28;20770;-55
2022/03/11 05:57:48;;;;;;;17.37;12.00;;;-0.60;1.00;;;;;;6307271;28;20324;-55
2022/03/11 06:00:51;;;;;;;16.03;12.33;;;-0.60;1.00;;;;;;6303832;28;20266;-55
2022/03/11 06:03:54;;;;;;;13.10;11.73;;;-0.60;1.00;;;;;;6292236;28;20734;-55
2022/03/11 06:06:56;;;;;;;15.37;11.77;;;-0.50;1.00;;;;;;6301057;28;20233;-56
2022/03/11 06:09:59;;;;;;;17.57;12.43;;;-0.50;1.00;;;;;;6304760;28;20778;-56
2022/03/11 06:13:03;;;;;;;13.43;11.97;;;-0.50;1.00;;;;;;6300872;28;20635;-55
2022/03/11 06:16:06;;;;;;;17.40;12.20;;;-0.60;1.00;;;;;;6305138;28;20331;-55
2022/03/11 06:19:09;;;;;;;20.13;12.33;;;-0.40;1.00;;;;;;6294967;28;20232;-57
2022/03/11 06:22:12;;;;;;;14.03;12.47;;;-0.30;1.00;;;;;;6306925;28;20847;-55
2022/03/11 06:25:15;;;;;;;21.10;12.50;;;-0.30;1.00;;;;;;6307336;28;20462;-55
2022/03/11 06:28:19;;;;;;;15.87;12.50;;;-0.40;1.00;;;;;;6301104;28;20313;-55
2022/03/11 06:31:22;;;;;;;13.90;12.17;;;-0.30;1.00;;;;;;6307272;28;20782;-57
2022/03/11 06:34:25;;;;;;;18.43;12.43;;;-0.30;1.00;;;;;;6303326;28;20347;-55
2022/03/11 06:37:31;;;;;;;13.93;11.53;;;-0.20;1.00;;;;;;6306345;28;20236;-57
2022/03/11 06:40:34;;;;;;;18.53;12.80;;;-0.10;1.00;;;;;;6309842;28;20567;-56
2022/03/11 06:43:38;;;;;;;19.43;13.13;;;-0.10;1.00;;;;;;6311031;28;21742;-56
2022/03/11 06:46:41;;;;;;;23.37;12.73;;;0.00;1.00;;;;;;6304851;28;20244;-57
2022/03/11 06:49:44;;;;;;;14.50;11.83;;;0.20;1.00;;;;;;6310938;28;20308;-56
2022/03/11 06:52:46;;;;;;;15.60;12.87;;;0.00;1.00;;;;;;6306896;28;20243;-57
2022/03/11 06:55:49;;;;;;;17.60;13.03;;;0.00;1.00;;;;;;6307113;28;20646;-56
2022/03/11 06:58:53;;;;;;;16.33;12.27;;;0.20;1.00;;;;;;6303826;28;20250;-58
2022/03/11 07:01:56;;;;;;;23.27;12.60;;;0.30;1.00;;;;;;6310943;28;20505;-55
2022/03/11 07:04:59;;;;;;;16.03;11.97;;;0.30;1.00;;;;;;6309103;28;20244;-58
2022/03/11 07:08:02;;;;;;;20.77;13.20;;;0.30;1.00;;;;;;6301269;28;20307;-58
2022/03/11 07:11:06;;;;;;;15.87;11.97;;;0.40;1.00;;;;;;6309551;28;20360;-57
2022/03/11 07:14:10;;;;;;;22.10;13.20;;;0.30;1.00;;;;;;6307380;28;20419;-57
2022/03/11 07:17:13;;;;;;;16.10;12.20;;;0.40;1.00;;;;;;6304735;28;20271;-56
2022/03/11 07:20:16;;;;;;;19.40;13.27;;;0.60;1.00;;;;;;6298146;28;20487;-56
2022/03/11 07:23:18;;;;;;;18.87;12.73;;;0.80;1.00;;;;;;6305739;28;20294;-55
2022/03/11 07:26:22;;;;;;;16.27;12.27;;;1.40;1.00;;;;;;6309589;28;20236;-55
2022/03/11 07:29:26;;;;;;;20.20;12.40;;;2.10;1.00;;;;;;6306089;28;20370;-55
2022/03/11 07:32:29;;;;;;;19.77;12.17;;;2.20;1.00;;;;;;6303845;28;20379;-57
2022/03/11 07:35:32;;;;;;;19.33;12.77;;;1.90;1.00;;;;;;6308342;28;20355;-56
2022/03/11 07:38:34;;;;;;;18.77;12.43;;;1.70;1.00;;;;;;6308139;28;20345;-56
2022/03/11 07:41:38;;;;;;;18.30;12.53;;;1.80;1.00;;;;;;6307986;28;20312;-56
2022/03/11 07:44:43;;;;;;;19.60;12.10;;;1.30;1.00;;;;;;6302113;28;20846;-55
2022/03/11 07:47:46;;;;;;;18.07;12.60;;;1.30;1.00;;;;;;6307096;28;20326;-56
2022/03/11 07:50:48;;;;;;;29.13;12.97;;;1.60;1.00;;;;;;6302967;28;20271;-56
2022/03/11 07:53:51;;;;;;;24.73;12.50;;;1.30;1.00;;;;;;6311061;28;22518;-56
2022/03/11 07:56:54;;;;;;;19.60;11.90;;;1.40;1.00;;;;;;6305206;28;20472;-57
2022/03/11 08:00:00;;;;;;;19.73;12.43;;;1.60;1.00;;;;;;6308841;28;20252;-57
2022/03/11 08:03:02;;;;;;;19.50;12.10;;;1.80;1.00;;;;;;6304888;28;20315;-56
2022/03/11 08:06:06;;;;;;;17.47;12.23;;;1.60;1.00;;;;;;6307491;28;20378;-56
2022/03/11 08:09:09;;;;;;;18.30;12.97;;;1.60;1.00;;;;;;6305254;28;20730;-56
2022/03/11 08:12:13;;;;;;;17.70;12.20;;;1.60;1.00;;;;;;6305800;28;20232;-57
2022/03/11 08:15:18;;;;;;;16.00;11.80;;;1.80;1.00;;;;;;6308126;28;20313;-55
2022/03/11 08:18:21;;;;;;;17.03;12.80;;;1.80;1.00;;;;;;6297384;28;20402;-57
2022/03/11 08:21:24;;;;;;;20.43;13.33;;;1.80;1.00;;;;;;6305694;28;20303;-55
2022/03/11 08:24:27;;;;;;;16.90;12.43;;;1.90;1.00;;;;;;6309460;28;20319;-55
2022/03/11 08:27:30;;;;;;;18.67;12.50;;;1.90;1.00;;;;;;6304796;28;20610;-55
2022/03/11 08:30:34;;;;;;;18.00;12.17;;;2.30;1.00;;;;;;6307197;28;20263;-55
2022/03/11 08:33:39;;;;;;;26.43;12.43;;;2.30;1.00;;;;;;6305940;28;20651;-56
2022/03/11 08:36:51;;;;;;;19.97;13.13;;;2.30;1.00;;;;;;6302090;28;20289;-57
2022/03/11 08:39:54;;;;;;;20.77;11.90;;;2.70;1.00;;;;;;6308070;28;20240;-55
2022/03/11 08:42:56;;;;;;;16.60;11.90;;;2.70;1.00;;;;;;6303419;28;20263;-55
2022/03/11 08:46:01;;;;;;;25.83;12.50;;;3.00;1.00;;;;;;6296330;28;20237;-56
2022/03/11 08:49:06;;;;;;;13.70;11.17;;;2.90;1.00;;;;;;6307493;28;20235;-58
2022/03/11 08:52:10;;;;;;;17.87;12.40;;;2.80;1.00;;;;;;6305643;28;20264;-57
2022/03/11 08:55:15;;;;;;;21.67;12.37;;;2.80;1.00;;;;;;6308260;28;20240;-58
2022/03/11 08:58:19;;;;;;;21.93;12.20;;;3.10;1.00;;;;;;6303396;28;20583;-56
2022/03/11 09:01:24;;;;;;;17.63;11.77;;;3.40;1.00;;;;;;6307019;28;20233;-55
2022/03/11 09:04:27;;;;;;;18.23;11.40;;;3.50;1.00;;;;;;6306667;28;20314;-56
2022/03/11 09:07:30;;;;;;;17.43;11.53;;;3.40;1.00;;;;;;6300750;28;20636;-55
2022/03/11 09:10:33;;;;;;;16.80;11.70;;;3.70;1.00;;;;;;6299692;28;20295;-56
2022/03/11 09:13:36;;;;;;;17.90;11.40;;;3.60;1.00;;;;;;6307136;28;20817;-57
2022/03/11 09:16:40;;;;;;;17.50;10.83;;;3.80;1.00;;;;;;6307023;28;20631;-57
2022/03/11 09:19:43;;;;;;;23.00;12.13;;;4.00;1.00;;;;;;6299197;28;20738;-55
2022/03/11 09:23:06;;;;;;;20.30;12.30;;;4.10;1.00;;;;;;6308240;28;20666;-56
2022/03/11 09:26:10;;;;;;;17.97;11.60;;;4.10;1.00;;;;;;6307746;28;20815;-56
2022/03/11 09:29:12;;;;;;;31.90;12.60;;;4.10;1.00;;;;;;6302308;28;20235;-56
2022/03/11 09:32:17;;;;;;;15.87;11.93;;;4.30;1.00;;;;;;6307347;28;20289;-55
2022/03/11 09:35:20;;;;;;;16.00;11.50;;;4.30;1.00;;;;;;6306721;28;20617;-57
2022/03/11 09:38:22;;;;;;;24.07;12.23;;;4.40;1.00;;;;;;6304954;28;20298;-56
2022/03/11 09:41:27;;;;;;;18.60;12.37;;;4.80;1.00;;;;;;6306821;28;20868;-57
2022/03/11 09:44:30;;;;;;;18.83;11.80;;;4.60;1.00;;;;;;6306151;28;20382;-56
2022/03/11 09:47:34;;;;;;;14.13;12.07;;;4.70;1.00;;;;;;6303945;28;20241;-56
2022/03/11 09:50:37;;;;;;;17.47;11.60;;;4.80;1.00;;;;;;6300488;28;20232;-56
2022/03/11 09:53:42;;;;;;;16.57;12.53;;;4.70;1.00;;;;;;6305761;28;20315;-56
2022/03/11 09:56:46;;;;;;;16.57;11.97;;;5.00;1.00;;;;;;6302290;28;20531;-55
2022/03/11 09:59:48;;;;;;;15.87;11.60;;;4.90;1.00;;;;;;6306498;28;20318;-55
2022/03/11 10:03:00;;;;;;;15.13;11.83;;;5.00;1.00;;;;;;6307791;28;20235;-57
2022/03/11 10:06:03;;;;;;;21.67;12.00;;;5.20;1.00;;;;;;6301080;28;20228;-55
2022/03/11 10:09:06;;;;;;;16.33;11.10;;;5.20;1.00;;;;;;6307014;28;20228;-55
2022/03/11 10:12:09;;;;;;;18.00;11.50;;;5.20;1.00;;;;;;6312256;28;20319;-55
2022/03/11 10:15:13;;;;;;;13.93;11.63;;;5.10;1.00;;;;;;6311229;28;20373;-55
2022/03/11 10:18:17;;;;;;;16.00;10.70;;;5.30;1.00;;;;;;6301541;28;20776;-55
2022/03/11 10:21:20;;;;;;;19.07;11.17;;;5.60;1.00;;;;;;6303494;28;20497;-55
2022/03/11 10:24:23;;;;;;;14.33;11.10;;;5.70;1.00;;;;;;6309344;28;20331;-55
2022/03/11 10:27:25;;;;;;;14.90;10.60;;;5.60;1.00;;;;;;6310569;28;20258;-56
2022/03/11 10:30:45;;;;;;;16.93;11.13;;;5.80;1.00;;;;;;6309237;28;20378;-57
2022/03/11 10:33:49;;;;;;;14.93;11.00;;;6.20;1.00;;;;;;6300841;28;20373;-56
2022/03/11 10:36:54;;;;;;;16.33;11.13;;;6.00;1.00;;;;;;6302109;28;20278;-58
2022/03/11 10:39:57;;;;;;;20.13;11.37;;;6.10;1.00;;;;;;6298940;28;20228;-55
2022/03/11 10:43:15;;;;;;;19.27;11.50;;;6.20;1.00;;;;;;6306778;28;20757;-56
2022/03/11 10:46:25;;;;;;;15.83;11.03;;;6.10;1.00;;;;;;6308356;28;20344;-56
2022/03/11 10:49:33;;;;;;;17.67;11.10;;;6.40;1.00;;;;;;6310988;28;20429;-57
2022/03/11 10:52:38;;;;;;;13.80;9.90;;;6.50;1.00;;;;;;6308858;28;20335;-57
2022/03/11 10:55:43;;;;;;;18.13;10.77;;;6.40;1.00;;;;;;6303007;28;20247;-56
2022/03/11 10:58:45;;;;;;;13.57;10.77;;;6.70;1.00;;;;;;6303270;28;20260;-55
2022/03/11 11:01:51;;;;;;;13.50;10.07;;;7.00;1.00;;;;;;6309518;28;20428;-56
2022/03/11 11:04:55;;;;;;;15.03;10.63;;;7.10;1.00;;;;;;6310197;28;20247;-55
2022/03/11 11:07:59;;;;;;;15.70;10.77;;;7.10;1.00;;;;;;6300170;28;20285;-55
2022/03/11 11:11:02;;;;;;;14.73;10.53;;;7.10;1.00;;;;;;6306079;28;20521;-56
2022/03/11 11:14:07;;;;;;;15.53;10.23;;;7.20;1.00;;;;;;6310136;28;20644;-55
2022/03/11 11:17:13;;;;;;;12.90;10.40;;;7.20;1.00;;;;;;6309887;28;20252;-58
2022/03/11 11:20:22;;;;;;;17.63;10.93;;;7.30;1.00;;;;;;6305374;28;20697;-57
2022/03/11 11:23:25;;;;;;;13.87;10.47;;;7.20;1.00;;;;;;6306679;28;20298;-57
2022/03/11 11:26:28;;;;;;;13.03;9.90;;;7.30;1.00;;;;;;6308658;28;20232;-56
2022/03/11 11:29:33;;;;;;;16.73;10.27;;;7.50;1.00;;;;;;6309766;28;20331;-57
2022/03/11 11:32:38;;;;;;;12.50;10.57;;;7.60;1.00;;;;;;6303620;28;20947;-56
2022/03/11 11:35:44;;;;;;;15.20;10.27;;;7.60;1.00;;;;;;6305839;28;20736;-56
2022/03/11 11:38:47;;;;;;;13.83;10.13;;;7.70;1.00;;;;;;6309400;28;20237;-56
2022/03/11 11:41:56;;;;;;;17.20;10.60;;;7.80;1.00;;;;;;6309539;28;20378;-57
2022/03/11 11:44:59;;;;;;;18.73;11.97;;;8.00;1.00;;;;;;6307831;28;20253;-56
2022/03/11 11:48:01;;;;;;;12.50;10.10;;;7.90;1.00;;;;;;6307371;28;20332;-56
2022/03/11 11:51:07;;;;;;;16.27;10.17;;;8.10;1.00;;;;;;6304620;28;20336;-56
2022/03/11 11:54:11;;;;;;;14.13;10.27;;;8.20;1.00;;;;;;6308131;28;20323;-57
2022/03/11 11:57:25;;;;;;;13.77;9.77;;;8.20;1.00;;;;;;6309321;28;20715;-57
2022/03/11 12:00:34;;;;;;;13.77;9.23;;;8.20;1.00;;;;;;6310236;28;20740;-58
2022/03/11 12:03:50;;;;;;;15.07;9.97;;;8.40;1.00;;;;;;6309230;28;20481;-56
2022/03/11 12:06:56;;;;;;;26.53;11.03;;;8.30;1.00;;;;;;6299174;28;20291;-57
2022/03/11 12:10:00;;;;;;;15.10;9.73;;;8.30;1.00;;;;;;6308692;28;20248;-57
2022/03/11 12:13:05;;;;;;;13.27;9.47;;;8.30;1.00;;;;;;6305192;28;20232;-57
2022/03/11 12:16:20;;;;;;;14.87;9.53;;;8.40;1.00;;;;;;6308350;28;20236;-56
2022/03/11 12:19:37;;;;;;;16.37;9.90;;;8.60;1.00;;;;;;6305205;28;20329;-55
2022/03/11 12:22:52;;;;;;;9.87;8.87;;;8.70;1.00;;;;;;6301691;28;20777;-56
2022/03/11 12:25:58;;;;;;;9.80;8.47;;;8.80;1.00;;;;;;6302468;28;20645;-56
2022/03/11 12:29:01;;;;;;;10.20;8.90;;;8.90;1.00;;;;;;6309169;28;20317;-56
2022/03/11 12:32:08;;;;;;;11.67;9.00;;;9.00;1.00;;;;;;6307529;28;20478;-58
2022/03/11 12:35:12;;;;;;;11.33;9.60;;;9.00;1.00;;;;;;6300516;28;20378;-56
2022/03/11 12:38:18;;;;;;;13.80;9.10;;;9.20;1.00;;;;;;6306725;28;20351;-57
2022/03/11 12:41:24;;;;;;;12.13;8.57;;;9.20;1.00;;;;;;6302379;28;20832;-56
2022/03/11 12:44:27;;;;;;;10.13;8.27;;;9.10;1.00;;;;;;6305564;28;20264;-56
2022/03/11 12:47:36;;;;;;;13.37;8.50;;;9.20;1.00;;;;;;6306447;28;20728;-57
2022/03/11 12:50:40;;;;;;;9.13;7.80;;;9.20;1.00;;;;;;6306904;28;20401;-56
2022/03/11 12:53:46;;;;;;;8.77;7.43;;;9.20;1.00;;;;;;6308231;28;20287;-56
2022/03/11 12:56:49;;;;;;;22.27;8.13;;;9.30;1.00;;;;;;6308301;28;20321;-57
2022/03/11 12:59:52;;;;;;;12.97;7.90;;;9.30;1.00;;;;;;6299050;28;20241;-57
2022/03/11 13:02:54;;;;;;;14.63;7.43;;;9.40;1.00;;;;;;6307900;28;20865;-55
2022/03/11 13:05:59;;;;;;;8.27;7.57;;;9.40;1.00;;;;;;6304999;28;20240;-55
2022/03/11 13:09:03;;;;;;;9.50;7.53;;;9.40;1.00;;;;;;6302999;28;20323;-57
2022/03/11 13:12:22;;;;;;;7.90;7.10;;;9.50;1.00;;;;;;6308581;28;20337;-55
2022/03/11 13:15:27;;;;;;;8.17;7.07;;;9.40;1.00;;;;;;6302688;28;20690;-57
2022/03/11 13:18:31;;;;;;;10.67;7.90;;;9.40;1.00;;;;;;6307866;28;20263;-56
2022/03/11 13:21:34;;;;;;;10.77;7.30;;;9.40;1.00;;;;;;6305479;28;20297;-57
2022/03/11 13:24:38;;;;;;;8.53;7.73;;;9.50;1.00;;;;;;6299329;28;20370;-56
2022/03/11 13:27:41;;;;;;;11.23;7.07;;;9.60;1.00;;;;;;6306829;28;20379;-56
2022/03/11 13:30:44;;;;;;;10.53;7.37;;;9.60;1.00;;;;;;6307178;28;20617;-55
2022/03/11 13:33:48;;;;;;;8.10;7.30;;;9.60;1.00;;;;;;6301257;28;20248;-56
2022/03/11 13:36:52;;;;;;;11.10;7.23;;;9.70;1.00;;;;;;6306298;28;20233;-56
2022/03/11 13:40:09;;;;;;;9.67;7.23;;;9.80;1.00;;;;;;6308409;28;20527;-57
2022/03/11 13:43:12;;;;;;;9.23;7.53;;;9.90;1.00;;;;;;6294074;28;20235;-57
2022/03/11 13:46:26;;;;;;;8.50;6.83;;;9.90;1.00;;;;;;6297392;28;20369;-57
2022/03/11 13:49:38;;;;;;;13.37;7.20;;;9.90;1.00;;;;;;6305129;28;20450;-56
2022/03/11 13:52:42;;;;;;;11.87;7.07;;;10.00;1.00;;;;;;6300170;28;20235;-57
2022/03/11 13:55:46;;;;;;;14.20;7.37;;;9.80;1.00;;;;;;6299958;28;20328;-59
2022/03/11 13:58:49;;;;;;;7.10;6.40;;;9.70;1.00;;;;;;6300370;28;20327;-58
2022/03/11 14:01:51;;;;;;;11.57;6.90;;;9.70;1.00;;;;;;6307264;28;20311;-57
2022/03/11 14:05:07;;;;;;;12.57;7.30;;;9.90;1.00;;;;;;6302906;28;20229;-56
2022/03/11 14:08:12;;;;;;;14.30;7.10;;;9.90;1.00;;;;;;6303119;28;20552;-56
2022/03/11 14:11:22;;;;;;;9.93;7.47;;;9.90;1.00;;;;;;6304656;28;20266;-58
2022/03/11 14:14:26;;;;;;;8.90;6.90;;;10.00;1.00;;;;;;6304667;28;20379;-56
2022/03/11 14:17:31;;;;;;;7.03;6.27;;;9.90;1.00;;;;;;6300436;28;20714;-56
2022/03/11 14:20:34;;;;;;;9.87;7.70;;;9.80;1.00;;;;;;6294036;28;20265;-57
2022/03/11 14:23:36;;;;;;;11.53;7.60;;;9.70;1.00;;;;;;6308527;28;20240;-57
2022/03/11 14:26:41;;;;;;;14.90;7.13;;;9.50;1.00;;;;;;6304836;28;20367;-56
2022/03/11 14:29:44;;;;;;;10.17;7.17;;;9.40;1.00;;;;;;6306141;28;20789;-57
2022/03/11 14:32:47;;;;;;;10.27;7.17;;;9.40;1.00;;;;;;6296910;28;20281;-57
2022/03/11 14:35:50;;;;;;;8.67;7.80;;;9.40;1.00;;;;;;6306897;28;20290;-57
2022/03/11 14:38:53;;;;;;;14.97;8.40;;;9.20;1.00;;;;;;6299750;28;20359;-57
2022/03/11 14:41:57;;;;;;;7.40;6.60;;;9.30;1.00;;;;;;6302096;28;20710;-57
2022/03/11 14:45:00;;;;;;;9.73;7.33;;;9.40;1.00;;;;;;6299002;28;20240;-57
2022/03/11 14:48:03;;;;;;;24.57;7.53;;;9.40;1.00;;;;;;6296858;28;20237;-56
2022/03/11 14:51:18;;;;;;;19.23;7.40;;;9.40;1.00;;;;;;6302432;28;20238;-55
2022/03/11 14:54:21;;;;;;;13.63;8.07;;;9.30;1.00;;;;;;6303542;28;20323;-56
2022/03/11 14:57:26;;;;;;;14.17;7.57;;;9.20;1.00;;;;;;6305356;28;20603;-55
2022/03/11 15:00:29;;;;;;;8.50;7.67;;;9.20;1.00;;;;;;6301258;28;20243;-57
2022/03/11 15:03:32;;;;;;;7.40;6.80;;;9.20;1.00;;;;;;6306252;28;20242;-57
2022/03/11 15:06:35;;;;;;;12.20;7.40;;;9.20;1.00;;;;;;6305634;28;20731;-56
2022/03/11 15:09:38;;;;;;;8.20;6.87;;;9.20;1.00;;;;;;6309393;28;20250;-56
2022/03/11 15:12:42;;;;;;;8.73;7.73;;;9.20;1.00;;;;;;6302485;28;20319;-56
2022/03/11 15:15:45;;;;;;;9.37;7.37;;;9.20;1.00;;;;;;6303862;28;20244;-57
2022/03/11 15:18:47;;;;;;;9.83;7.97;;;9.10;1.00;;;;;;6309408;28;20285;-57
2022/03/11 15:21:50;;;;;;;8.83;7.37;;;9.00;1.00;;;;;;6309485;28;20509;-57
2022/03/11 15:24:53;;;;;;;12.90;7.00;;;8.90;1.00;;;;;;6305831;28;20330;-55
2022/03/11 15:27:57;;;;;;;10.00;7.57;;;8.80;1.00;;;;;;6309423;28;20311;-56
2022/03/11 15:31:01;;;;;;;7.50;6.80;;;8.80;1.00;;;;;;6305675;28;20748;-56
2022/03/11 15:34:03;;;;;;;10.53;8.07;;;8.60;1.00;;;;;;6304823;28;20332;-57
2022/03/11 15:37:06;;;;;;;9.73;6.93;;;8.50;1.00;;;;;;6303565;28;20305;-57
2022/03/11 15:40:10;;;;;;;8.10;7.40;;;8.50;1.00;;;;;;6310464;28;20715;-56
2022/03/11 15:43:14;;;;;;;8.73;7.67;;;8.40;1.00;;;;;;6308075;28;20225;-61
2022/03/11 15:46:18;;;;;;;9.30;8.50;;;8.30;1.00;;;;;;6305914;28;22477;-56
2022/03/11 15:49:21;;;;;;;8.60;6.97;;;8.30;1.00;;;;;;6303574;28;20748;-56
2022/03/11 15:52:32;;;;;;;10.07;7.20;;;8.20;1.00;;;;;;6302414;28;20240;-56
2022/03/11 15:55:35;;;;;;;9.80;7.50;;;8.10;1.00;;;;;;6298217;28;20241;-55
2022/03/11 15:58:39;;;;;;;11.53;7.47;;;8.00;1.00;;;;;;6307904;28;20317;-56